Data for 01/04/2008

Time Sea-Level Adjusted Pressure Absolute Pressure Temperature Relative Humidity Dew Point   
(mb) (inHg) (mb) (inHg) (C) (F) (%) (C) (F)
00:05 1007 29.74 836 24.69 3.9 39 36 -9.8 14.3
00:10 1007 29.74 836 24.69 3.7 38.6 36 -10.1 13.9
00:15 1007 29.74 836 24.69 3.8 38.9 34 -10.6 13
00:20 1007 29.74 836 24.69 5.5 41.9 32 -10 14
00:25 1007 29.74 836 24.69 6.6 43.8 28 -10.7 12.8
00:30 1007 29.74 836 24.69 6.9 44.4 28 -10.5 13.1
00:35 1007 29.74 836 24.69 7 44.6 28 -10.4 13.3
00:40 1007 29.74 836 24.69 6.9 44.4 28 -10.6 12.9
00:45 1007 29.74 836 24.69 6.6 43.9 28 -10.6 13
00:50 1007 29.74 836 24.69 6.6 43.9 27 -11 12.1
00:55 1007 29.74 836 24.69 6.6 43.9 27 -10.9 12.4
01:00 1007 29.74 836 24.69 6.7 44 27 -11.2 11.8
01:05 1007 29.74 836 24.69 6.7 44.1 28 -10.8 12.6
01:10 1007 29.74 836 24.69 6.8 44.3 27 -11.1 12.1
01:15 1007 29.74 836 24.69 6.6 44 28 -10.7 12.7
01:20 1007 29.74 836 24.69 6.5 43.6 27 -11.1 12
01:25 1007 29.74 836 24.69 6.6 43.8 27 -11 12.2
01:30 1007 29.74 836 24.69 6.7 44 27 -10.9 12.5
01:35 1007 29.74 836 24.69 6.6 43.9 28 -10.7 12.7
01:40 1007 29.74 836 24.69 6.5 43.7 29 -10.2 13.6
01:45 1007 29.74 836 24.69 6.1 43 30 -10.1 13.8
01:50 1007 29.74 836 24.69 6 42.7 31 -9.8 14.4
01:55 1007 29.74 836 24.69 5.6 42 32 -9.9 14.1
02:00 1007 29.74 836 24.69 5.3 41.6 32 -10.1 13.8
02:05 1007 29.74 837 24.72 5.5 41.9 32 -10.1 13.8
02:10 1007 29.74 837 24.72 5.5 41.9 32 -10 14.1
02:15 1007 29.74 837 24.72 5.3 41.5 32 -10 14
02:20 1007 29.74 837 24.72 5.1 41.2 33 -9.7 14.5
02:25 1007 29.74 837 24.72 4.7 40.5 35 -9.5 15
02:30 1007 29.74 836 24.69 3.6 38.6 38 -9.2 15.4
02:35 1007 29.74 836 24.69 3.3 37.9 36 -10.3 13.4
02:40 1007 29.74 837 24.72 4.1 39.3 35 -9.9 14.1
02:45 1008 29.77 837 24.72 3.9 39 36 -9.9 14.2
02:50 1008 29.77 837 24.72 4.2 39.6 36 -9.6 14.6
02:55 1008 29.77 837 24.72 4 39.1 34 -10.5 13.2
03:00 1008 29.77 837 24.72 4.5 40.1 35 -9.8 14.4
03:05 1007 29.74 837 24.72 4 39.2 35 -10.2 13.7
03:10 1008 29.77 837 24.72 4 39.1 35 -10 14
03:15 1008 29.77 837 24.72 4.1 39.3 34 -10.4 13.3
03:20 1008 29.77 837 24.72 3.9 39 37 -9.4 15.2
03:25 1008 29.77 838 24.75 3.2 37.7 38 -9.7 14.6
03:30 1008 29.77 838 24.75 3.4 38 37 -10 13.9
03:35 1009 29.8 838 24.75 3.8 38.9 34 -10.6 13
03:40 1009 29.8 838 24.75 4.6 40.3 32 -10.5 13
03:45 1009 29.8 838 24.75 5 40.9 33 -10 14
03:50 1009 29.8 838 24.75 4.7 40.4 34 -10 14.1
03:55 1009 29.8 838 24.75 4.5 40.1 34 -10.2 13.7
04:00 1009 29.8 838 24.75 4.5 40.2 35 -9.7 14.6
04:05 1009 29.8 838 24.75 4.2 39.5 35 -9.9 14.2
04:10 1009 29.8 838 24.75 3.9 39.1 35 -10.1 13.8
04:15 1009 29.8 838 24.75 4.1 39.4 35 -10.2 13.7
04:20 1009 29.8 838 24.75 4.2 39.6 35 -9.8 14.4
04:25 1009 29.8 838 24.75 3.9 39 36 -10 14
04:30 1009 29.8 839 24.78 3 37.4 42 -8.8 16.1
04:35 1009 29.8 839 24.78 2.3 36.2 41 -9.6 14.7
04:40 1009 29.8 839 24.78 2.6 36.7 41 -9.3 15.2
04:45 1009 29.8 839 24.78 2.8 37.1 39 -9.9 14.1
04:50 1009 29.8 839 24.78 3.2 37.8 39 -9.4 15
04:55 1009 29.8 839 24.78 3.3 37.9 38 -9.7 14.6
05:00 1009 29.8 839 24.78 3.6 38.5 38 -9.3 15.3
05:05 1009 29.8 839 24.78 3.1 37.6 40 -9.3 15.2
05:10 1009 29.8 839 24.78 3.3 38 37 -10.1 13.9
05:15 1009 29.8 839 24.78 3.7 38.7 36 -10.1 13.7
05:20 1009 29.8 838 24.75 4.2 39.6 37 -9.2 15.4
05:25 1009 29.8 838 24.75 4.2 39.5 34 -10.3 13.4
05:30 1009 29.8 838 24.75 4.5 40.1 36 -9.2 15.4
05:35 1009 29.8 838 24.75 3.5 38.3 38 -9.4 15.1
05:40 1009 29.8 838 24.75 2.8 37.1 43 -8.4 16.8
05:45 1009 29.8 838 24.75 1.5 34.6 44 -9.4 15
05:50 1009 29.8 838 24.75 1.9 35.5 43 -9.5 14.9
05:55 1009 29.8 838 24.75 3.2 37.8 37 -10.2 13.6
06:00 1009 29.8 838 24.75 3.8 38.9 37 -9.5 14.9
06:05 1009 29.8 838 24.75 3.7 38.7 37 -9.5 14.9
06:10 1009 29.8 838 24.75 3.3 38 40 -9.1 15.5
06:15 1009 29.8 838 24.75 3.2 37.8 39 -9.5 14.8
06:20 1009 29.8 838 24.75 3.4 38 38 -9.6 14.8
06:25 1009 29.8 838 24.75 3.3 38 41 -8.7 16.4
06:30 1009 29.8 838 24.75 2.8 37 43 -8.7 16.4
06:35 1009 29.8 838 24.75 2.6 36.6 42 -9 15.8
06:40 1009 29.8 838 24.75 2.5 36.5 42 -9.1 15.6
06:45 1009 29.8 838 24.75 2.4 36.3 44 -8.6 16.6
06:50 1009 29.8 838 24.75 2.3 36.1 43 -9 15.7
06:55 1009 29.8 838 24.75 2.2 36 42 -9.3 15.3
07:00 1009 29.8 838 24.75 2.7 36.8 42 -9 15.8
07:05 1009 29.8 838 24.75 2.4 36.4 42 -9.2 15.4
07:10 1009 29.8 838 24.75 2.6 36.7 40 -9.5 14.8
07:15 1009 29.8 838 24.75 3.3 38 39 -9.2 15.5
07:20 1009 29.8 838 24.75 3.2 37.7 42 -8.6 16.5
07:25 1009 29.8 838 24.75 2.4 36.4 44 -8.5 16.7
07:30 1009 29.8 838 24.75 1.8 35.3 44 -9.1 15.6
07:35 1008 29.77 838 24.75 2.1 35.8 42 -9.5 14.9
07:40 1008 29.77 838 24.75 2.5 36.5 41 -9.4 15.1
07:45 1008 29.77 837 24.72 2.9 37.2 39 -9.8 14.3
07:50 1008 29.77 837 24.72 3.3 38 38 -9.5 14.9
07:55 1008 29.77 837 24.72 3.4 38.2 38 -9.5 14.8
08:00 1008 29.77 837 24.72 3.6 38.4 39 -9.3 15.3
08:05 1008 29.77 837 24.72 3.7 38.6 37 -9.6 14.7
08:10 1008 29.77 837 24.72 3.7 38.6 38 -9.5 15
08:15 1008 29.77 837 24.72 3.7 38.7 39 -9.1 15.7
08:20 1008 29.77 837 24.72 3.9 39 37 -9.5 14.9
08:25 1008 29.77 837 24.72 4.2 39.5 38 -9 15.8
08:30 1007 29.74 837 24.72 4.3 39.8 37 -9 15.7
08:35 1007 29.74 836 24.69 4.4 40 36 -9.5 15
08:40 1007 29.74 836 24.69 4.8 40.7 36 -9 15.8
08:45 1007 29.74 836 24.69 4.8 40.6 37 -8.8 16.1
08:50 1007 29.74 836 24.69 5.1 41.1 35 -9.1 15.7
08:55 1007 29.74 836 24.69 5.2 41.4 35 -9 15.7
09:00 1007 29.74 836 24.69 5.3 41.5 34 -9.5 14.9
09:05 1007 29.74 836 24.69 5.4 41.7 34 -9.4 15.1
09:10 1007 29.74 836 24.69 5.6 42.1 34 -9.2 15.5
09:15 1007 29.74 836 24.69 5.6 42.2 33 -9.2 15.4
09:20 1007 29.74 836 24.69 5.7 42.3 33 -9.3 15.3
09:25 1007 29.74 836 24.69 5.9 42.7 32 -9.4 15.1
09:30 1007 29.74 836 24.69 5.9 42.6 32 -9.5 14.8
09:35 1007 29.74 836 24.69 5.7 42.2 34 -9.1 15.5
09:40 1007 29.74 836 24.69 5.4 41.8 32 -9.8 14.3
09:45 1006 29.71 836 24.69 5.7 42.2 32 -9.7 14.5
09:50 1006 29.71 836 24.69 5.8 42.4 32 -9.6 14.7
09:55 1006 29.71 835 24.66 5.5 41.9 35 -8.8 16.2
10:00 1006 29.71 835 24.66 4.6 40.3 37 -8.9 15.9
10:05 1006 29.71 835 24.66 4.3 39.8 37 -9 15.8
10:10 1006 29.71 835 24.66 4.5 40.1 36 -9.2 15.4
10:15 1006 29.71 835 24.66 4.6 40.2 37 -9.1 15.7
10:20 1006 29.71 835 24.66 4.7 40.5 36 -9.2 15.4
10:25 1006 29.71 835 24.66 4.7 40.5 35 -9.3 15.2
10:30 1006 29.71 835 24.66 4.4 39.9 37 -9.1 15.5
10:35 1006 29.71 835 24.66 4.3 39.7 38 -8.9 16
10:40 1006 29.71 835 24.66 4.5 40 36 -9.5 14.9
10:45 1005 29.68 835 24.66 4.6 40.3 34 -9.8 14.3
10:50 1005 29.68 834 24.63 5.2 41.3 33 -9.8 14.3
10:55 1005 29.68 834 24.63 5.5 42 32 -9.9 14.2
11:00 1005 29.68 834 24.63 5.5 41.9 31 -10.5 13.2
11:05 1005 29.68 834 24.63 6.4 43.6 29 -10.4 13.2
11:10 1005 29.68 834 24.63 7.5 45.5 26 -10.6 12.9
11:15 1005 29.68 834 24.63 8.3 46.9 26 -10.3 13.4
11:20 1005 29.68 834 24.63 8.3 47 25 -10.4 13.3
11:25 1005 29.68 834 24.63 8.4 47.2 28 -9 15.7
11:30 1004 29.65 833 24.6 8.4 47 27 -9.5 15
11:35 1004 29.65 833 24.6 8.5 47.2 25 -10.6 12.9
11:40 1004 29.65 833 24.6 8.8 47.8 26 -9.9 14.1
11:45 1004 29.65 833 24.6 8.9 48 25 -10 14.1
11:50 1004 29.65 833 24.6 8.7 47.7 25 -10.1 13.9
11:55 1003 29.62 832 24.57 8.9 48 25 -10.2 13.6
12:00 1003 29.62 832 24.57 9.1 48.4 27 -8.9 16
12:05 1003 29.62 832 24.57 9.1 48.3 27 -9.2 15.4
12:10 1003 29.62 832 24.57 9.1 48.3 26 -9.6 14.8
12:15 1003 29.62 832 24.57 9.2 48.5 25 -10 14.1
12:20 1003 29.62 832 24.57 9.6 49.3 25 -9.6 14.8
12:25 1003 29.62 832 24.57 9.7 49.5 26 -9 15.7
12:30 1003 29.62 832 24.57 9.3 48.7 26 -9.3 15.2
12:35 1003 29.62 832 24.57 9 48.2 25 -9.8 14.4
12:40 1003 29.62 832 24.57 8.9 47.9 28 -8.9 16.1
12:45 1003 29.62 832 24.57 8.6 47.6 27 -9.2 15.4
12:50 1003 29.62 832 24.57 8.5 47.3 27 -9.4 15.1
12:55 1003 29.62 832 24.57 8.8 47.8 27 -9.2 15.4
13:00 1002 29.59 832 24.57 8.9 48.1 25 -9.9 14.2
13:05 1002 29.59 832 24.57 8.8 47.9 27 -9.1 15.6
13:10 1002 29.59 831 24.54 8.7 47.6 25 -10.2 13.7
13:15 1002 29.59 831 24.54 8.9 48.1 26 -9.6 14.8
13:20 1002 29.59 831 24.54 8.4 47.2 29 -8.4 16.9
13:25 1001 29.56 831 24.54 8.1 46.5 29 -9 15.8
13:30 1001 29.56 830 24.51 8.4 47 27 -9.4 15.1
13:35 1001 29.56 830 24.51 8.7 47.6 26 -9.7 14.6
13:40 1001 29.56 831 24.54 8.7 47.6 27 -9.3 15.3
13:45 1001 29.56 830 24.51 8.5 47.3 28 -9 15.7
13:50 1001 29.56 830 24.51 8.8 47.9 27 -9.1 15.7
13:55 1001 29.56 830 24.51 8.7 47.6 30 -7.9 17.8
14:00 1001 29.56 830 24.51 8.7 47.7 27 -9.4 15.1
14:05 1001 29.56 830 24.51 8.9 48.1 27 -9.2 15.4
14:10 1000 29.53 830 24.51 9 48.2 28 -8.8 16.2
14:15 1001 29.56 830 24.51 9.1 48.5 29 -8.1 17.3
14:20 1000 29.53 830 24.51 9.1 48.5 29 -8 17.6
14:25 1000 29.53 830 24.51 9.2 48.6 27 -8.9 16
14:30 1001 29.56 830 24.51 9.3 48.7 27 -8.7 16.3
14:35 1001 29.56 830 24.51 9 48.3 29 -8.1 17.3
14:40 1001 29.56 830 24.51 8.6 47.5 29 -8.3 17
14:45 1000 29.53 830 24.51 8.9 48 28 -8.6 16.5
14:50 1000 29.53 830 24.51 9.1 48.4 29 -8.1 17.4
14:55 1000 29.53 829 24.48 9.2 48.5 28 -8.4 16.8
15:00 1000 29.53 829 24.48 9.5 49 29 -7.6 18.4
15:05 1000 29.53 829 24.48 9.2 48.5 28 -8.4 16.9
15:10 1000 29.53 829 24.48 9.4 49 28 -8.3 17.1
15:15 1000 29.53 829 24.48 9.5 49 28 -8.2 17.2
15:20 1000 29.53 829 24.48 9.4 48.9 29 -7.9 17.8
15:25 1000 29.53 829 24.48 9.2 48.5 30 -7.7 18.2
15:30 1000 29.53 829 24.48 9 48.1 29 -7.9 17.7
15:35 1000 29.53 829 24.48 9 48.3 29 -8 17.6
15:40 1000 29.53 829 24.48 9.5 49 28 -7.9 17.7
15:45 1000 29.53 829 24.48 9.4 48.9 30 -7.2 19.1
15:50 1000 29.53 830 24.51 9.1 48.3 30 -7.5 18.5
15:55 1000 29.53 829 24.48 9 48.3 30 -7.6 18.3
16:00 1000 29.53 829 24.48 9.1 48.4 31 -7.1 19.3
16:05 1000 29.53 829 24.48 9 48.3 30 -7.7 18.1
16:10 1000 29.53 829 24.48 9 48.2 30 -7.6 18.3
16:15 1000 29.53 829 24.48 8.8 47.9 31 -7.2 19.1
16:20 1000 29.53 829 24.48 8.8 47.9 32 -7 19.4
16:25 1000 29.53 829 24.48 8.5 47.4 32 -7.3 18.8
16:30 1000 29.53 829 24.48 8.4 47.1 33 -7.1 19.3
16:35 1000 29.53 829 24.48 8.2 46.7 33 -7.2 19.1
16:40 1000 29.53 829 24.48 8.1 46.5 34 -6.8 19.7
16:45 1000 29.53 829 24.48 8.1 46.6 34 -6.8 19.8
16:50 1000 29.53 829 24.48 8.1 46.6 33 -7.1 19.2
16:55 999 29.5 829 24.48 8.4 47 33 -7.1 19.2
17:00 1000 29.53 829 24.48 8.4 47 34 -6.5 20.4
17:05 1000 29.53 829 24.48 8.4 47.1 33 -7 19.5
17:10 999 29.5 829 24.48 8.5 47.2 34 -6.6 20.1
17:15 999 29.5 828 24.45 8.4 47 34 -6.6 20.2
17:20 999 29.5 828 24.45 8.3 46.9 33 -7 19.3
17:25 999 29.5 829 24.48 8.3 47 34 -6.8 19.8
17:30 999 29.5 829 24.48 8.4 47 33 -7.2 19.1
17:35 999 29.5 829 24.48 8.6 47.4 33 -6.9 19.6
17:40 999 29.5 829 24.48 8.6 47.5 33 -6.9 19.5
17:45 999 29.5 829 24.48 8.5 47.3 33 -6.7 19.9
17:50 999 29.5 828 24.45 8.5 47.3 33 -6.7 19.9
17:55 999 29.5 828 24.45 8.5 47.3 32 -7.3 18.8
18:00 999 29.5 828 24.45 8.7 47.7 33 -6.6 20.1
18:05 999 29.5 828 24.45 8.4 47.2 34 -6.7 20
18:10 999 29.5 828 24.45 8.2 46.7 36 -6 21.2
18:15 999 29.5 828 24.45 8.1 46.5 35 -6.4 20.5
18:20 999 29.5 828 24.45 8 46.4 37 -5.9 21.4
18:25 998 29.47 828 24.45 7.8 46 37 -6.1 21
18:30 998 29.47 827 24.42 8.1 46.6 36 -6 21.1
18:35 998 29.47 827 24.42 8 46.4 38 -5.6 22
18:40 998 29.47 827 24.42 7.8 46 40 -4.9 23.1
18:45 998 29.47 827 24.42 7.7 45.8 40 -5.1 22.7
18:50 998 29.47 827 24.42 7.8 46 35 -6.8 19.7
18:55 998 29.47 827 24.42 8.6 47.5 35 -6 21.1
19:00 998 29.47 827 24.42 8.5 47.3 35 -5.9 21.4
19:05 998 29.47 827 24.42 8.3 47 38 -5.1 22.8
19:10 998 29.47 827 24.42 8.1 46.6 38 -5.3 22.5
19:15 998 29.47 827 24.42 7.9 46.3 40 -4.9 23.2
19:20 998 29.47 827 24.42 7.6 45.7 42 -4.5 23.9
19:25 998 29.47 827 24.42 7.4 45.3 42 -4.6 23.7
19:30 998 29.47 827 24.42 7.5 45.4 40 -5.2 22.7
19:35 998 29.47 827 24.42 7.7 45.8 40 -4.9 23.1
19:40 998 29.47 827 24.42 7.9 46.2 40 -4.8 23.3
19:45 998 29.47 827 24.42 8 46.5 39 -5.1 22.8
19:50 998 29.47 827 24.42 8.3 47 38 -5.2 22.7
19:55 998 29.47 827 24.42 8.1 46.7 37 -5.6 21.9
20:00 998 29.47 827 24.42 8.3 46.9 36 -5.8 21.6
20:05 998 29.47 827 24.42 8.4 47 36 -5.7 21.8
20:10 997 29.44 827 24.42 8.1 46.6 38 -5.4 22.3
20:15 997 29.44 826 24.39 8.4 47 36 -6 21.3
20:20 997 29.44 826 24.39 8.4 47.1 37 -5.6 22
20:25 997 29.44 826 24.39 8.2 46.8 37 -5.4 22.2
20:30 997 29.44 826 24.39 8.4 47.2 38 -5.1 22.8
20:35 997 29.44 826 24.39 8.1 46.6 36 -6.1 21
20:40 996 29.41 826 24.39 8.4 47 35 -6.3 20.7
20:45 996 29.41 825 24.36 8.5 47.2 34 -6.5 20.3
20:50 996 29.41 825 24.36 8.7 47.6 33 -6.6 20.2
20:55 996 29.41 825 24.36 8.9 48 34 -6.2 20.8
21:00 996 29.41 826 24.39 8.8 47.9 34 -6.1 21
21:05 996 29.41 825 24.36 8.7 47.6 33 -6.6 20.2
21:10 996 29.41 825 24.36 8.9 48 34 -6.1 21
21:15 996 29.41 825 24.36 8.7 47.6 35 -6 21.3
21:20 996 29.41 825 24.36 8.5 47.3 35 -6 21.1
21:25 996 29.41 825 24.36 8.5 47.3 34 -6.5 20.2
21:30 996 29.41 825 24.36 8.7 47.7 34 -6.2 20.8
21:35 996 29.41 825 24.36 8.6 47.5 34 -6.5 20.2
21:40 995 29.38 825 24.36 8.8 47.8 33 -6.5 20.2
21:45 995 29.38 824 24.33 8.8 47.9 34 -6.3 20.6
21:50 995 29.38 824 24.33 8.7 47.7 33 -6.6 20.2
21:55 995 29.38 824 24.33 8.8 47.8 34 -6.2 20.8
22:00 995 29.38 824 24.33 8.9 48 34 -6.3 20.7
22:05 995 29.38 824 24.33 8.9 47.9 34 -6.2 20.8
22:10 995 29.38 824 24.33 8.7 47.7 34 -6.2 20.9
22:15 995 29.38 824 24.33 8.6 47.5 34 -6.2 20.9
22:20 995 29.38 824 24.33 8.7 47.6 35 -5.8 21.6
22:25 995 29.38 824 24.33 8.5 47.4 35 -6.2 20.9
22:30 995 29.38 824 24.33 8.6 47.5 35 -6.2 20.9
22:35 995 29.38 824 24.33 8.8 47.8 35 -5.9 21.5
22:40 995 29.38 824 24.33 8.7 47.6 35 -6.1 21.1
22:45 995 29.38 824 24.33 8.7 47.6 35 -5.9 21.4
22:50 995 29.38 824 24.33 8.6 47.5 36 -5.8 21.6
22:55 994 29.35 824 24.33 8.7 47.6 36 -5.7 21.8
23:00 994 29.35 824 24.33 8.6 47.4 35 -6.2 20.9
23:05 995 29.38 824 24.33 8.6 47.5 36 -5.8 21.6
23:10 995 29.38 824 24.33 8.2 46.7 40 -4.6 23.8
23:15 995 29.38 824 24.33 8.1 46.5 39 -5.1 22.8
23:20 995 29.38 824 24.33 8.2 46.7 39 -5 23
23:25 995 29.38 824 24.33 8 46.5 40 -4.7 23.6
23:30 995 29.38 824 24.33 7.8 46 43 -4.2 24.5
23:35 995 29.38 824 24.33 7.4 45.3 43 -4.4 24
23:40 995 29.38 824 24.33 7.3 45.1 45 -4 24.9
23:45 995 29.38 824 24.33 7.2 45 44 -4.1 24.6
23:50 995 29.38 824 24.33 7.3 45.1 42 -4.7 23.6
23:55 995 29.38 824 24.33 7.7 45.8 42 -4.5 23.9
24:00 995 29.38 824 24.33 7.6 45.6 43 -4.2 24.4